Time;durP1;ratioP1;P1;durP2;ratioP2;P2;SDS_P1;SDS_P2;PMS_P1;PMS_P2;Temp;Humidity;BMP_temperature;BMP_pressure;BME280_temperature;BME280_humidity;BME280_pressure;Samples;Min_cycle;Max_cycle;Signal;HPM_P1;HPM_P2
2024/02/13 00:00:33;;;;;;;38.65;16.63;;;2.20;99.90;;;;;;5075306;28;20055;-68
2024/02/13 00:02:59;;;;;;;36.15;17.25;;;2.20;99.90;;;;;;5075535;28;20028;-69
2024/02/13 00:05:26;;;;;;;32.25;16.30;;;2.20;99.90;;;;;;5075716;28;20029;-69
2024/02/13 00:07:52;;;;;;;33.30;16.77;;;2.30;99.90;;;;;;5075652;28;20475;-68
2024/02/13 00:10:21;;;;;;;44.13;18.67;;;2.20;99.90;;;;;;5075543;28;20113;-69
2024/02/13 00:12:46;;;;;;;39.47;18.15;;;2.30;99.90;;;;;;5075569;28;20032;-69
2024/02/13 00:15:18;;;;;;;29.27;16.83;;;2.50;99.90;;;;;;5075204;28;20098;-68
2024/02/13 00:17:44;;;;;;;31.98;17.55;;;2.40;99.90;;;;;;5075296;28;20028;-69
2024/02/13 00:20:10;;;;;;;33.58;18.00;;;2.40;99.90;;;;;;5075342;28;20417;-68
2024/02/13 00:22:36;;;;;;;34.80;18.35;;;2.40;99.90;;;;;;5075148;28;20028;-69
2024/02/13 00:25:02;;;;;;;46.28;21.02;;;2.40;99.90;;;;;;5075447;28;20124;-69
2024/02/13 00:27:32;;;;;;;37.80;17.50;;;2.40;99.90;;;;;;5074606;28;20020;-69
2024/02/13 00:29:58;;;;;;;41.13;19.17;;;2.40;99.90;;;;;;5075249;28;20501;-69
2024/02/13 00:32:24;;;;;;;44.25;20.67;;;2.40;99.90;;;;;;5075198;28;20024;-68
2024/02/13 00:34:50;;;;;;;47.28;19.88;;;2.30;99.90;;;;;;5075040;28;20036;-68
2024/02/13 00:37:16;;;;;;;37.53;19.10;;;2.30;99.90;;;;;;5074990;28;20054;-68
2024/02/13 00:39:43;;;;;;;48.65;19.48;;;2.40;99.90;;;;;;5075058;28;20561;-69
2024/02/13 00:42:08;;;;;;;39.30;20.38;;;2.40;99.90;;;;;;5074879;28;20033;-69
2024/02/13 00:44:36;;;;;;;37.63;18.30;;;2.30;99.90;;;;;;5074967;28;20716;-68
2024/02/13 00:47:02;;;;;;;38.70;20.63;;;2.30;99.90;;;;;;5074945;28;20024;-68
2024/02/13 00:49:28;;;;;;;39.95;20.38;;;2.30;99.90;;;;;;5074783;28;20493;-69
2024/02/13 00:51:55;;;;;;;41.15;19.90;;;2.20;99.90;;;;;;5074801;28;20025;-69
2024/02/13 00:54:22;;;;;;;38.17;19.75;;;2.20;99.90;;;;;;5074685;28;20031;-68
2024/02/13 00:56:48;;;;;;;44.88;20.83;;;2.20;99.90;;;;;;5074302;28;20505;-69
2024/02/13 00:59:14;;;;;;;38.50;21.25;;;2.20;99.90;;;;;;5074481;28;20024;-68
2024/02/13 01:01:39;;;;;;;37.78;19.92;;;2.20;99.90;;;;;;5074203;28;20520;-68
2024/02/13 01:04:06;;;;;;;38.35;20.20;;;2.20;99.90;;;;;;5074572;28;20036;-68
2024/02/13 01:06:33;;;;;;;40.60;20.95;;;2.20;99.90;;;;;;5074399;28;20389;-68
2024/02/13 01:09:00;;;;;;;48.03;22.45;;;2.20;99.90;;;;;;5074595;28;20052;-69
2024/02/13 01:11:26;;;;;;;46.22;22.45;;;2.10;99.90;;;;;;5074307;28;20025;-69
2024/02/13 01:13:52;;;;;;;43.17;22.05;;;2.10;99.90;;;;;;5074298;28;20032;-68
2024/02/13 01:16:19;;;;;;;40.80;22.73;;;2.10;99.90;;;;;;5074211;28;20025;-69
2024/02/13 01:18:44;;;;;;;41.75;20.55;;;2.10;99.90;;;;;;5074272;28;20028;-69
2024/02/13 01:21:14;;;;;;;41.25;20.80;;;2.10;99.90;;;;;;5074234;28;20032;-69
2024/02/13 01:23:40;;;;;;;39.90;21.17;;;2.10;99.90;;;;;;5073844;28;20028;-68
2024/02/13 01:26:05;;;;;;;39.17;20.08;;;2.10;99.90;;;;;;5074106;28;20017;-68
2024/02/13 01:28:35;;;;;;;41.10;20.42;;;2.10;99.90;;;;;;5073647;28;20047;-68
2024/02/13 01:31:02;;;;;;;40.92;20.77;;;2.10;99.90;;;;;;5074130;28;20024;-68
2024/02/13 01:33:28;;;;;;;45.75;21.08;;;2.00;99.90;;;;;;5073969;28;20390;-68
2024/02/13 01:35:54;;;;;;;39.40;20.70;;;2.00;99.90;;;;;;5073731;28;20028;-68
2024/02/13 01:38:20;;;;;;;47.20;21.67;;;2.00;99.90;;;;;;5073386;28;20497;-68
2024/02/13 01:40:46;;;;;;;43.80;20.55;;;2.00;99.90;;;;;;5072941;28;20031;-68
2024/02/13 01:43:13;;;;;;;37.30;20.35;;;2.00;99.90;;;;;;5073602;28;20040;-68
2024/02/13 01:45:39;;;;;;;45.63;21.38;;;1.90;99.90;;;;;;5073661;28;20478;-68
2024/02/13 01:48:10;;;;;;;43.92;20.75;;;1.90;99.90;;;;;;5073879;28;20028;-68
2024/02/13 01:50:37;;;;;;;40.40;20.63;;;1.90;99.90;;;;;;5073799;28;20032;-68
2024/02/13 01:53:04;;;;;;;44.15;21.95;;;2.00;99.90;;;;;;5073823;28;20585;-68
2024/02/13 01:55:32;;;;;;;44.88;21.50;;;1.90;99.90;;;;;;5073833;28;20029;-68
2024/02/13 01:57:59;;;;;;;44.58;21.42;;;2.00;99.90;;;;;;5073610;28;20020;-68
2024/02/13 02:00:27;;;;;;;47.03;22.73;;;1.90;99.90;;;;;;5073211;28;20044;-68
2024/02/13 02:02:54;;;;;;;41.03;21.35;;;1.90;99.90;;;;;;5073221;28;20032;-68
2024/02/13 02:05:20;;;;;;;46.40;21.92;;;1.90;99.90;;;;;;5073524;28;20475;-68
2024/02/13 02:07:46;;;;;;;43.55;21.92;;;2.00;99.90;;;;;;5073085;28;20111;-68
2024/02/13 02:10:13;;;;;;;56.60;23.67;;;2.00;99.90;;;;;;5073523;28;20479;-68
2024/02/13 02:12:40;;;;;;;49.83;22.85;;;2.10;99.90;;;;;;5073383;28;20035;-68
2024/02/13 02:15:07;;;;;;;51.53;22.95;;;2.20;99.90;;;;;;5073333;28;20028;-68
2024/02/13 02:17:33;;;;;;;52.85;23.90;;;2.30;99.90;;;;;;5073470;28;20505;-68
2024/02/13 02:19:59;;;;;;;64.10;24.77;;;2.60;99.90;;;;;;5073372;28;20016;-68
2024/02/13 02:22:24;;;;;;;62.72;25.00;;;2.80;99.90;;;;;;5073185;28;20548;-68
2024/02/13 02:24:50;;;;;;;64.38;25.73;;;2.80;99.90;;;;;;5073274;28;20111;-68
2024/02/13 02:27:17;;;;;;;73.40;25.33;;;2.80;99.90;;;;;;5073272;28;20496;-68
2024/02/13 02:29:43;;;;;;;67.82;26.23;;;3.00;99.90;;;;;;5072847;28;20040;-68
2024/02/13 02:32:09;;;;;;;74.53;28.42;;;3.00;99.90;;;;;;5073219;28;20032;-68
2024/02/13 02:34:35;;;;;;;84.95;29.15;;;3.20;99.90;;;;;;5073334;28;20028;-68
2024/02/13 02:37:01;;;;;;;77.72;29.52;;;3.20;99.90;;;;;;5073350;28;20033;-68
2024/02/13 02:39:27;;;;;;;79.03;29.33;;;3.30;99.90;;;;;;5073118;28;20032;-68
2024/02/13 02:41:53;;;;;;;85.45;31.35;;;3.40;99.90;;;;;;5073065;28;20025;-68
2024/02/13 02:44:19;;;;;;;80.20;29.73;;;3.40;99.90;;;;;;5072949;28;20047;-68
2024/02/13 02:46:47;;;;;;;84.93;31.50;;;3.40;99.90;;;;;;5073184;28;20037;-68
2024/02/13 02:49:13;;;;;;;78.13;29.88;;;3.40;99.90;;;;;;5073178;28;20033;-69
2024/02/13 02:51:38;;;;;;;79.53;31.15;;;3.30;99.90;;;;;;5075682;28;20020;-68
2024/02/13 02:54:05;;;;;;;74.07;28.73;;;3.20;99.90;;;;;;5077178;28;20028;-68
2024/02/13 02:56:31;;;;;;;86.43;30.58;;;3.20;99.90;;;;;;5076828;28;20025;-69
2024/02/13 02:58:56;;;;;;;87.15;31.17;;;3.10;99.90;;;;;;5076925;28;20033;-68
2024/02/13 03:01:22;;;;;;;93.18;32.05;;;3.20;99.90;;;;;;5076555;28;20406;-68
2024/02/13 03:03:50;;;;;;;87.85;31.60;;;3.40;99.90;;;;;;5076466;28;20064;-69
2024/02/13 03:06:16;;;;;;;94.28;31.02;;;3.30;99.90;;;;;;5076833;28;20035;-69
2024/02/13 03:08:43;;;;;;;78.10;30.60;;;3.30;99.90;;;;;;5076843;28;20020;-68
2024/02/13 03:11:09;;;;;;;75.65;28.08;;;3.10;99.90;;;;;;5076780;28;20052;-69
2024/02/13 03:13:35;;;;;;;71.15;26.55;;;2.90;99.90;;;;;;5076791;28;20070;-68
2024/02/13 03:16:02;;;;;;;66.95;25.27;;;2.80;99.90;;;;;;5076601;28;20044;-68
2024/02/13 03:18:29;;;;;;;71.28;26.25;;;2.70;99.90;;;;;;5076541;28;20478;-69
2024/02/13 03:20:54;;;;;;;57.22;23.70;;;2.60;99.90;;;;;;5076604;28;20024;-68
2024/02/13 03:23:20;;;;;;;59.80;25.52;;;2.50;99.90;;;;;;5076226;28;20029;-69
2024/02/13 03:25:45;;;;;;;56.60;22.95;;;2.40;99.90;;;;;;5076321;28;20025;-68
2024/02/13 03:28:11;;;;;;;59.63;22.45;;;2.40;99.90;;;;;;5076223;28;20028;-68
2024/02/13 03:30:37;;;;;;;70.80;25.65;;;2.40;99.90;;;;;;5076475;28;20457;-68
2024/02/13 03:33:03;;;;;;;68.70;24.42;;;2.40;99.90;;;;;;5076452;28;20033;-68
2024/02/13 03:35:30;;;;;;;69.10;25.33;;;2.50;99.90;;;;;;5076297;28;20397;-68
2024/02/13 03:37:55;;;;;;;61.45;24.65;;;2.50;99.90;;;;;;5076207;28;20502;-68
2024/02/13 03:40:22;;;;;;;59.55;24.20;;;2.50;99.90;;;;;;5075930;28;20135;-69
2024/02/13 03:42:47;;;;;;;59.45;23.90;;;2.60;99.90;;;;;;5075640;28;20078;-68
2024/02/13 03:45:13;;;;;;;57.83;23.10;;;2.50;99.90;;;;;;5076186;28;20036;-68
2024/02/13 03:47:39;;;;;;;64.35;23.40;;;2.60;99.90;;;;;;5076077;28;20028;-69
2024/02/13 03:50:06;;;;;;;67.80;24.73;;;2.60;99.90;;;;;;5076221;28;20028;-69
2024/02/13 03:52:33;;;;;;;66.93;25.27;;;2.70;99.90;;;;;;5075961;28;20020;-69
2024/02/13 03:54:59;;;;;;;67.68;26.25;;;2.70;99.90;;;;;;5075827;28;20111;-68
2024/02/13 03:57:25;;;;;;;74.35;25.77;;;2.70;99.90;;;;;;5075706;28;20075;-68
2024/02/13 03:59:50;;;;;;;70.15;29.02;;;2.80;99.90;;;;;;5075226;28;20081;-68
2024/02/13 04:02:16;;;;;;;87.47;32.60;;;2.80;99.90;;;;;;5074733;28;20037;-68
2024/02/13 04:04:42;;;;;;;85.72;31.98;;;3.00;99.90;;;;;;5075369;28;20435;-68
2024/02/13 04:07:08;;;;;;;88.95;32.47;;;3.20;99.90;;;;;;5075716;28;20016;-68
2024/02/13 04:09:36;;;;;;;96.22;35.40;;;3.20;99.90;;;;;;5075543;28;20171;-68
2024/02/13 04:12:02;;;;;;;95.95;35.30;;;3.30;99.90;;;;;;5075558;28;20086;-68
2024/02/13 04:14:28;;;;;;;95.43;35.38;;;3.40;99.90;;;;;;5075295;28;20394;-68
2024/02/13 04:16:54;;;;;;;89.72;36.75;;;3.40;99.90;;;;;;5075439;28;20033;-68
2024/02/13 04:19:20;;;;;;;110.78;37.47;;;3.50;99.90;;;;;;5075479;28;20028;-68
2024/02/13 04:21:45;;;;;;;99.93;37.58;;;3.60;99.90;;;;;;5075409;28;20490;-68
2024/02/13 04:24:11;;;;;;;103.88;37.80;;;3.60;99.90;;;;;;5075237;28;20024;-68
2024/02/13 04:26:40;;;;;;;97.30;35.45;;;3.60;99.90;;;;;;5075420;28;20028;-69
2024/02/13 04:29:06;;;;;;;100.75;34.15;;;3.50;99.90;;;;;;5075195;28;20541;-68
2024/02/13 04:31:31;;;;;;;91.28;35.03;;;3.60;99.90;;;;;;5074725;28;20087;-68
2024/02/13 04:33:57;;;;;;;98.22;35.08;;;3.50;99.90;;;;;;5074913;28;20091;-68
2024/02/13 04:36:23;;;;;;;97.30;34.70;;;3.50;99.90;;;;;;5075096;28;20108;-68
2024/02/13 04:38:49;;;;;;;89.05;34.08;;;3.50;99.90;;;;;;5075070;28;20028;-68
2024/02/13 04:41:18;;;;;;;94.85;33.95;;;3.50;99.90;;;;;;5074743;28;20379;-69
2024/02/13 04:43:43;;;;;;;81.10;31.23;;;3.40;99.90;;;;;;5074544;28;20165;-69
2024/02/13 04:46:09;;;;;;;62.42;28.58;;;3.20;99.90;;;;;;5075047;28;20062;-69
2024/02/13 04:48:35;;;;;;;85.13;31.98;;;3.00;99.90;;;;;;5074780;28;20059;-68
2024/02/13 04:51:01;;;;;;;78.90;31.15;;;3.00;99.90;;;;;;5074829;28;20033;-68
2024/02/13 04:53:28;;;;;;;85.63;31.25;;;2.90;99.90;;;;;;5074709;28;20040;-68
2024/02/13 04:55:55;;;;;;;81.20;29.85;;;2.80;99.90;;;;;;5074273;28;20025;-68
2024/02/13 04:58:23;;;;;;;70.00;28.75;;;2.80;99.90;;;;;;5074707;28;20499;-68
2024/02/13 05:00:51;;;;;;;65.22;28.00;;;2.70;99.90;;;;;;5074274;28;20124;-68
2024/02/13 05:03:26;;;;;;;76.05;31.13;;;2.60;99.90;;;;;;5074331;28;20494;-68
2024/02/13 05:08:37;;;;;;;72.43;29.77;;;2.50;99.90;;;;;;5074114;28;20021;-68
2024/02/13 05:11:03;;;;;;;76.30;30.77;;;2.50;99.90;;;;;;5074739;28;20021;-68
2024/02/13 05:13:31;;;;;;;85.05;32.53;;;2.50;99.90;;;;;;5074141;28;20032;-68
2024/02/13 05:15:58;;;;;;;79.78;31.25;;;2.70;99.90;;;;;;5073870;28;20024;-68
2024/02/13 05:18:23;;;;;;;82.30;30.58;;;2.70;99.90;;;;;;5074180;28;20082;-68
2024/02/13 05:20:50;;;;;;;85.45;31.13;;;2.60;99.90;;;;;;5074069;28;20028;-69
2024/02/13 05:23:15;;;;;;;80.28;30.55;;;2.60;99.90;;;;;;5073941;28;20033;-68
2024/02/13 05:25:41;;;;;;;73.43;29.35;;;2.60;99.90;;;;;;5074177;28;20040;-69
2024/02/13 05:28:09;;;;;;;86.95;31.35;;;2.50;99.90;;;;;;5074194;28;20055;-69
2024/02/13 05:30:35;;;;;;;80.07;32.58;;;2.70;99.90;;;;;;5074001;28;20021;-68
2024/02/13 05:33:01;;;;;;;85.25;32.15;;;2.70;99.90;;;;;;5073757;28;20071;-68
2024/02/13 05:35:27;;;;;;;95.38;33.58;;;3.00;99.90;;;;;;5073726;28;20040;-68
2024/02/13 05:37:52;;;;;;;90.03;32.00;;;3.00;99.90;;;;;;5073961;28;20486;-68
2024/02/13 05:40:18;;;;;;;84.90;32.83;;;2.90;99.90;;;;;;5073729;28;20078;-68
2024/02/13 05:42:44;;;;;;;82.57;32.38;;;2.90;99.90;;;;;;5073771;28;20400;-69
2024/02/13 05:45:10;;;;;;;104.63;34.15;;;2.90;99.90;;;;;;5073950;28;20020;-69
2024/02/13 05:47:37;;;;;;;89.20;34.13;;;2.80;99.90;;;;;;5073842;28;20470;-68
2024/02/13 05:50:07;;;;;;;88.88;34.00;;;2.90;99.90;;;;;;5073473;28;20028;-69
2024/02/13 05:52:33;;;;;;;94.88;35.55;;;2.90;99.90;;;;;;5073647;28;20490;-69
2024/02/13 05:54:58;;;;;;;102.07;37.25;;;3.00;99.90;;;;;;5073745;28;20460;-68
2024/02/13 05:57:25;;;;;;;96.82;36.35;;;3.10;99.90;;;;;;5073602;28;20037;-69
2024/02/13 05:59:51;;;;;;;102.47;38.40;;;3.20;99.90;;;;;;5073509;28;20024;-68
2024/02/13 06:02:17;;;;;;;105.35;38.15;;;3.30;99.90;;;;;;5073422;28;20032;-69
2024/02/13 06:04:44;;;;;;;103.10;39.53;;;3.30;99.90;;;;;;5073609;28;20017;-69
2024/02/13 06:07:09;;;;;;;106.63;39.47;;;3.40;99.90;;;;;;5073611;28;20486;-68
2024/02/13 06:09:35;;;;;;;99.68;39.58;;;3.40;99.90;;;;;;5073523;28;20024;-69
2024/02/13 06:12:01;;;;;;;109.57;40.17;;;3.50;99.90;;;;;;5073405;28;20044;-69
2024/02/13 06:14:27;;;;;;;117.32;39.85;;;3.50;99.90;;;;;;5073426;28;20027;-69
2024/02/13 06:16:52;;;;;;;122.30;42.10;;;3.50;99.90;;;;;;5073349;28;20112;-69
2024/02/13 06:19:18;;;;;;;118.45;40.83;;;3.50;99.90;;;;;;5073216;28;20024;-69
2024/02/13 06:21:44;;;;;;;111.72;41.88;;;3.50;99.90;;;;;;5073286;28;20017;-69
2024/02/13 06:24:10;;;;;;;109.20;42.45;;;3.40;99.90;;;;;;5073355;28;20023;-68
2024/02/13 06:26:37;;;;;;;111.95;42.63;;;3.40;99.90;;;;;;5072694;28;20112;-69
2024/02/13 06:29:02;;;;;;;106.68;41.97;;;3.40;99.90;;;;;;5072699;28;20397;-69
2024/02/13 06:31:32;;;;;;;118.10;43.90;;;3.40;99.90;;;;;;5073131;28;20029;-69
2024/02/13 06:33:58;;;;;;;114.43;42.53;;;3.40;99.90;;;;;;5073245;28;20059;-69
2024/02/13 06:36:26;;;;;;;118.57;43.90;;;3.40;99.90;;;;;;5072720;28;20033;-69
2024/02/13 06:38:53;;;;;;;113.97;43.78;;;3.40;99.90;;;;;;5073200;28;20029;-69
2024/02/13 06:41:18;;;;;;;122.70;45.10;;;3.40;99.90;;;;;;5073170;28;20036;-69
2024/02/13 06:43:45;;;;;;;118.07;44.92;;;3.50;99.90;;;;;;5072881;28;20173;-69
2024/02/13 06:46:11;;;;;;;115.57;42.55;;;3.50;99.90;;;;;;5072983;28;20033;-69
2024/02/13 06:48:39;;;;;;;120.50;44.83;;;3.60;99.90;;;;;;5072843;28;20054;-69
2024/02/13 06:51:04;;;;;;;120.63;47.55;;;3.50;99.90;;;;;;5073015;28;20021;-69
2024/02/13 06:53:30;;;;;;;131.38;46.00;;;3.60;99.90;;;;;;5072591;28;20391;-70
2024/02/13 06:55:56;;;;;;;118.05;44.45;;;3.70;99.90;;;;;;5072888;28;20071;-69
2024/02/13 06:58:21;;;;;;;120.80;46.10;;;3.70;99.90;;;;;;5073027;28;20036;-70
2024/02/13 07:00:53;;;;;;;118.13;44.45;;;3.70;99.90;;;;;;5072596;28;20106;-70
2024/02/13 07:03:19;;;;;;;111.43;42.95;;;3.70;99.90;;;;;;5071238;28;20024;-69
2024/02/13 07:05:45;;;;;;;118.07;43.90;;;3.80;99.90;;;;;;5072410;28;20033;-70
2024/02/13 07:08:10;;;;;;;111.25;43.45;;;3.90;99.90;;;;;;5072602;28;20082;-70
2024/02/13 07:10:36;;;;;;;104.30;42.63;;;3.90;99.90;;;;;;5072587;28;20037;-70
2024/02/13 07:13:02;;;;;;;104.28;40.97;;;4.00;99.90;;;;;;5072811;28;20078;-70
2024/02/13 07:15:28;;;;;;;104.10;42.63;;;4.20;99.90;;;;;;5072261;28;20036;-70
2024/02/13 07:17:54;;;;;;;107.03;40.25;;;4.30;99.90;;;;;;5072214;28;20111;-70
2024/02/13 07:20:19;;;;;;;109.72;41.90;;;4.30;99.90;;;;;;5072782;28;20108;-70
2024/02/13 07:22:45;;;;;;;95.97;38.13;;;4.30;99.90;;;;;;5072187;28;20032;-70
2024/02/13 07:25:11;;;;;;;97.72;36.83;;;4.30;99.90;;;;;;5068822;28;20434;-69
2024/02/13 07:27:37;;;;;;;94.45;36.60;;;4.40;99.90;;;;;;5071892;28;20063;-71
2024/02/13 07:30:07;;;;;;;90.00;37.15;;;4.50;99.90;;;;;;5072509;28;20025;-70
2024/02/13 07:32:33;;;;;;;82.88;33.92;;;4.80;99.90;;;;;;5072376;28;20474;-69
2024/02/13 07:35:03;;;;;;;80.13;36.13;;;5.00;99.90;;;;;;5072074;28;20417;-69
2024/02/13 07:37:28;;;;;;;84.78;32.53;;;5.40;99.90;;;;;;5071410;28;20071;-69
2024/02/13 07:39:54;;;;;;;65.57;30.05;;;5.60;99.90;;;;;;5066262;28;20068;-69
2024/02/13 07:42:21;;;;;;;57.33;28.00;;;5.60;99.90;;;;;;5071779;28;20108;-70
2024/02/13 07:44:47;;;;;;;61.88;28.83;;;5.50;99.90;;;;;;5071923;28;20033;-70
2024/02/13 07:47:13;;;;;;;52.40;27.38;;;5.60;99.90;;;;;;5075885;28;20025;-70
2024/02/13 07:49:39;;;;;;;51.88;25.23;;;5.40;99.90;;;;;;5073289;28;20032;-70
2024/02/13 07:52:05;;;;;;;51.40;25.75;;;5.20;99.90;;;;;;5074098;28;20226;-70
2024/02/13 07:54:31;;;;;;;47.30;23.88;;;5.10;99.90;;;;;;5075711;28;20036;-70
2024/02/13 07:56:58;;;;;;;46.55;22.60;;;5.10;99.90;;;;;;5075295;28;20070;-70
2024/02/13 07:59:24;;;;;;;43.25;21.88;;;5.00;99.90;;;;;;5075289;28;20021;-70
2024/02/13 08:01:49;;;;;;;43.60;21.55;;;5.00;99.90;;;;;;5075091;28;20079;-70
2024/02/13 08:04:15;;;;;;;46.75;22.45;;;5.00;99.90;;;;;;5074607;28;20462;-70
2024/02/13 08:06:41;;;;;;;41.22;20.25;;;5.30;99.90;;;;;;5075379;28;20086;-71
2024/02/13 08:09:08;;;;;;;38.03;19.83;;;5.80;99.90;;;;;;5074971;28;20025;-70
2024/02/13 08:11:34;;;;;;;43.95;19.55;;;6.20;99.90;;;;;;5075323;28;20035;-71
2024/02/13 08:14:00;;;;;;;31.88;16.25;;;7.20;99.90;;;;;;5074932;28;20093;-71
2024/02/13 08:16:29;;;;;;;33.28;15.35;;;7.70;99.90;;;;;;5074783;28;20478;-71
2024/02/13 08:18:55;;;;;;;25.92;13.95;;;8.20;99.90;;;;;;5074765;28;20474;-72
2024/02/13 08:21:22;;;;;;;26.02;11.90;;;7.80;99.90;;;;;;5075437;28;20021;-71
2024/02/13 08:23:47;;;;;;;23.85;13.35;;;7.30;99.90;;;;;;5074961;28;20497;-72
2024/02/13 08:26:13;;;;;;;27.20;13.35;;;7.10;99.90;;;;;;5075055;28;20029;-72
2024/02/13 08:28:42;;;;;;;29.88;12.63;;;6.70;99.90;;;;;;5074622;28;20394;-72
2024/02/13 08:31:08;;;;;;;25.00;12.80;;;6.40;99.90;;;;;;5074984;28;20028;-71
2024/02/13 08:33:33;;;;;;;25.67;12.68;;;6.40;99.90;;;;;;5075057;28;20505;-72
2024/02/13 08:35:59;;;;;;;25.20;13.13;;;6.20;99.90;;;;;;5074483;28;20082;-72
2024/02/13 08:38:24;;;;;;;22.75;12.30;;;6.20;99.90;;;;;;5074880;28;20025;-72
2024/02/13 08:40:50;;;;;;;22.65;12.25;;;6.40;99.90;;;;;;5074009;28;20359;-71
2024/02/13 08:43:16;;;;;;;26.92;12.32;;;6.40;99.90;;;;;;5074722;28;20039;-72
2024/02/13 08:45:41;;;;;;;24.23;12.20;;;6.50;99.90;;;;;;5072248;28;20410;-70
2024/02/13 08:48:07;;;;;;;25.35;11.30;;;6.50;99.90;;;;;;5070198;28;20028;-71
2024/02/13 08:50:33;;;;;;;25.38;10.77;;;6.40;99.90;;;;;;5069755;28;20035;-70
2024/02/13 08:52:59;;;;;;;26.13;12.57;;;6.30;99.90;;;;;;5071371;28;20036;-71
2024/02/13 08:55:25;;;;;;;29.40;11.55;;;6.40;99.90;;;;;;5073237;28;20024;-71
2024/02/13 08:57:51;;;;;;;24.08;11.20;;;6.40;99.90;;;;;;5074310;28;20036;-71
2024/02/13 09:00:18;;;;;;;23.23;10.15;;;6.40;99.90;;;;;;5073679;28;20041;-71
2024/02/13 09:02:47;;;;;;;20.08;10.48;;;6.40;99.90;;;;;;5074257;28;20043;-70
2024/02/13 09:05:13;;;;;;;26.67;9.95;;;6.30;99.90;;;;;;5073963;28;20027;-71
2024/02/13 09:07:38;;;;;;;21.65;9.98;;;6.50;99.90;;;;;;5074295;28;20028;-71
2024/02/13 09:10:05;;;;;;;22.50;10.57;;;6.70;99.90;;;;;;5073916;28;20070;-71
2024/02/13 09:12:32;;;;;;;19.85;9.57;;;6.80;99.90;;;;;;5073796;28;20043;-71
2024/02/13 09:14:58;;;;;;;25.83;9.50;;;6.70;99.90;;;;;;5063483;28;20589;-71
2024/02/13 09:17:24;;;;;;;21.00;9.75;;;6.70;99.90;;;;;;5070720;28;20021;-71
2024/02/13 09:19:50;;;;;;;15.70;8.98;;;6.70;99.90;;;;;;5071519;28;20551;-71
2024/02/13 09:22:15;;;;;;;22.50;9.88;;;6.80;99.90;;;;;;5072497;28;20063;-73
2024/02/13 09:24:44;;;;;;;20.55;8.98;;;6.80;99.90;;;;;;5072524;28;20021;-72
2024/02/13 09:27:11;;;;;;;16.75;7.95;;;6.80;99.90;;;;;;5072706;28;20078;-72
2024/02/13 09:29:40;;;;;;;20.15;8.80;;;6.90;99.90;;;;;;5068303;28;20482;-71
2024/02/13 09:32:06;;;;;;;15.10;8.52;;;6.90;99.90;;;;;;5073611;28;20086;-73
2024/02/13 09:34:31;;;;;;;13.65;8.50;;;7.00;99.90;;;;;;5073985;28;20474;-73
2024/02/13 09:36:57;;;;;;;16.45;9.70;;;7.20;99.90;;;;;;5072626;28;20032;-73
2024/02/13 09:39:24;;;;;;;20.85;10.43;;;7.40;99.90;;;;;;5073218;28;20417;-72
2024/02/13 09:41:51;;;;;;;17.75;7.82;;;7.40;99.90;;;;;;5073670;28;20032;-72
2024/02/13 09:44:18;;;;;;;19.52;8.95;;;7.40;99.90;;;;;;5073443;28;20032;-72
2024/02/13 09:46:44;;;;;;;20.20;8.13;;;7.40;99.90;;;;;;5069953;28;20028;-72
2024/02/13 09:49:13;;;;;;;18.83;8.10;;;7.60;99.90;;;;;;5073444;28;20039;-71
2024/02/13 09:51:40;;;;;;;14.50;8.20;;;8.00;99.90;;;;;;5072815;28;20060;-71
2024/02/13 09:54:07;;;;;;;11.90;6.75;;;8.70;99.90;;;;;;5072393;28;20029;-70
2024/02/13 09:56:35;;;;;;;14.15;6.28;;;8.90;48.40;;;;;;5072858;28;20047;-73
2024/02/13 09:59:03;;;;;;;9.85;5.25;;;9.30;36.90;;;;;;5072918;28;20024;-73
2024/02/13 10:01:30;;;;;;;12.50;5.78;;;9.30;33.80;;;;;;5072444;28;20052;-73
2024/02/13 10:03:56;;;;;;;15.70;5.70;;;9.30;6.20;;;;;;5073774;28;20432;-72
2024/02/13 10:06:24;;;;;;;12.52;5.32;;;9.00;42.50;;;;;;5073715;28;20027;-72
2024/02/13 10:08:53;;;;;;;9.18;4.97;;;8.60;36.80;;;;;;5073616;28;20033;-72
2024/02/13 10:11:29;;;;;;;9.60;5.00;;;8.20;42.10;;;;;;5073871;28;20033;-72
2024/02/13 10:13:55;;;;;;;12.98;5.13;;;8.10;64.20;;;;;;5072936;28;20474;-72
2024/02/13 10:16:30;;;;;;;12.73;5.00;;;8.00;64.70;;;;;;5073071;28;20043;-72
2024/02/13 10:18:57;;;;;;;8.43;4.85;;;8.10;73.70;;;;;;5072862;28;20534;-72
2024/02/13 10:21:25;;;;;;;9.77;4.53;;;7.90;55.10;;;;;;5072344;28;20028;-71
2024/02/13 10:23:53;;;;;;;15.60;4.60;;;7.90;64.10;;;;;;5072202;28;20036;-72
2024/02/13 10:26:22;;;;;;;11.55;4.07;;;8.10;47.90;;;;;;5073245;28;20035;-72
2024/02/13 10:28:54;;;;;;;10.20;4.50;;;8.00;47.90;;;;;;5072997;28;20115;-71
2024/02/13 10:31:25;;;;;;;21.27;8.75;;;8.00;37.60;;;;;;5072958;28;20021;-71
2024/02/13 10:33:50;;;;;;;64.15;31.08;;;8.10;43.40;;;;;;5072386;28;20028;-72
2024/02/13 10:36:17;;;;;;;48.83;24.92;;;8.30;43.20;;;;;;5072987;28;20166;-71
2024/02/13 10:38:49;;;;;;;29.15;15.25;;;8.50;24.40;;;;;;5073162;28;20375;-72
2024/02/13 10:41:23;;;;;;;13.90;5.00;;;8.80;29.70;;;;;;5072399;28;20485;-72
2024/02/13 10:43:52;;;;;;;14.43;3.85;;;8.90;8.00;;;;;;5052794;28;20059;-72
2024/02/13 10:46:23;;;;;;;14.07;4.13;;;8.70;8.80;;;;;;5069333;28;20021;-72
2024/02/13 10:49:29;;;;;;;10.90;3.72;;;8.90;1.00;;;;;;5072232;28;20386;-73
2024/02/13 10:51:56;;;;;;;8.50;3.35;;;8.80;10.50;;;;;;5068180;28;20374;-73
2024/02/13 10:54:24;;;;;;;6.70;2.97;;;8.70;1.00;;;;;;5069554;28;20988;-72
2024/02/13 10:56:52;;;;;;;17.15;3.83;;;8.50;7.50;;;;;;5063313;28;20036;-72
2024/02/13 10:59:21;;;;;;;14.75;3.63;;;8.50;9.20;;;;;;5072093;28;20111;-72
2024/02/13 11:01:50;;;;;;;16.52;3.15;;;8.60;5.30;;;;;;5071867;28;20440;-72
2024/02/13 11:04:16;;;;;;;6.07;2.50;;;8.80;1.00;;;;;;5067868;28;20031;-72
2024/02/13 11:06:42;;;;;;;7.32;2.92;;;9.20;1.00;;;;;;5071849;28;20024;-72
2024/02/13 11:09:12;;;;;;;8.70;2.63;;;9.50;1.00;;;;;;5071997;28;20017;-73
2024/02/13 11:11:39;;;;;;;5.65;2.67;;;9.50;1.00;;;;;;5072698;28;20177;-73
2024/02/13 11:14:25;;;;;;;7.57;3.00;;;9.30;1.00;;;;;;5074402;28;20040;-71
2024/02/13 11:17:00;;;;;;;10.10;3.42;;;9.20;1.00;;;;;;5075777;28;20043;-71
2024/02/13 11:19:45;;;;;;;14.23;3.50;;;9.10;1.00;;;;;;5070410;28;20411;-71
2024/02/13 11:22:14;;;;;;;7.85;2.80;;;9.00;1.00;;;;;;5075655;28;20536;-71
2024/02/13 11:24:48;;;;;;;9.35;3.50;;;8.90;1.00;;;;;;5074894;28;20043;-70
2024/02/13 11:27:17;;;;;;;14.15;3.30;;;8.90;1.00;;;;;;5075707;28;20017;-70
2024/02/13 11:29:53;;;;;;;12.00;2.22;;;8.80;1.00;;;;;;5075923;28;20439;-71
2024/02/13 11:32:29;;;;;;;8.98;2.03;;;8.80;1.00;;;;;;5074851;28;20490;-70
2024/02/13 11:34:58;;;;;;;6.82;2.78;;;8.80;1.00;;;;;;5074242;28;20033;-71
2024/02/13 11:37:28;;;;;;;9.35;2.70;;;8.70;1.00;;;;;;5073803;28;20060;-70
2024/02/13 11:39:57;;;;;;;5.07;3.00;;;8.60;1.00;;;;;;5071633;28;20028;-70
2024/02/13 11:42:23;;;;;;;12.10;3.40;;;8.40;1.00;;;;;;5075075;28;20039;-70
2024/02/13 11:44:51;;;;;;;7.85;3.90;;;8.40;1.00;;;;;;5074396;28;20402;-70
2024/02/13 11:47:19;;;;;;;11.02;2.50;;;8.40;1.00;;;;;;5074626;28;20051;-70
2024/02/13 11:49:48;;;;;;;6.82;2.70;;;8.40;1.00;;;;;;5075681;28;20032;-70
2024/02/13 11:52:14;;;;;;;9.07;3.92;;;8.60;1.00;;;;;;5075387;28;20055;-71
2024/02/13 11:54:40;;;;;;;12.43;3.28;;;8.70;1.00;;;;;;5075718;28;20027;-72
2024/02/13 11:57:09;;;;;;;6.32;2.30;;;8.80;1.00;;;;;;5075215;28;20042;-73
2024/02/13 11:59:35;;;;;;;8.40;2.53;;;8.80;1.00;;;;;;5075555;28;20029;-73
2024/02/13 12:02:01;;;;;;;7.50;2.72;;;8.80;1.00;;;;;;5074696;28;20119;-72
2024/02/13 12:04:27;;;;;;;8.32;2.60;;;9.20;1.00;;;;;;5075441;28;20044;-72
2024/02/13 12:06:53;;;;;;;7.35;2.28;;;9.10;1.00;;;;;;5074516;28;20416;-72
2024/02/13 12:09:19;;;;;;;11.75;3.03;;;9.20;1.00;;;;;;5075184;28;20027;-71
2024/02/13 12:11:45;;;;;;;9.73;3.40;;;9.30;1.00;;;;;;5075006;28;20036;-72
2024/02/13 12:14:13;;;;;;;18.50;3.55;;;9.60;1.00;;;;;;5075695;28;20390;-73
2024/02/13 12:16:39;;;;;;;5.07;2.00;;;9.60;1.00;;;;;;5074751;28;20386;-71
2024/02/13 12:19:08;;;;;;;9.30;2.83;;;9.50;1.00;;;;;;5074692;28;20501;-72
2024/02/13 12:21:34;;;;;;;6.55;2.70;;;9.30;1.00;;;;;;5074811;28;20033;-73
2024/02/13 12:24:01;;;;;;;6.68;2.53;;;9.30;1.00;;;;;;5074083;28;20081;-73
2024/02/13 12:26:28;;;;;;;8.82;2.90;;;9.10;1.00;;;;;;5074994;28;20025;-73
2024/02/13 12:28:58;;;;;;;10.15;2.65;;;9.10;1.00;;;;;;5074701;28;20029;-72
2024/02/13 12:31:29;;;;;;;7.57;2.75;;;9.00;1.00;;;;;;5074724;28;20111;-72
2024/02/13 12:34:13;;;;;;;11.02;2.60;;;8.90;1.00;;;;;;5074847;28;20025;-72
2024/02/13 12:36:39;;;;;;;13.82;2.95;;;8.90;1.00;;;;;;5057139;28;20128;-72
2024/02/13 12:39:16;;;;;;;11.82;2.42;;;8.80;1.00;;;;;;5074292;28;20068;-72
2024/02/13 12:41:45;;;;;;;12.70;2.85;;;8.90;1.00;;;;;;5074057;28;20071;-72